Time;durP1;ratioP1;P1;durP2;ratioP2;P2;SDS_P1;SDS_P2;PMS_P1;PMS_P2;Temp;Humidity;BMP_temperature;BMP_pressure;BME280_temperature;BME280_humidity;BME280_pressure;Samples;Min_cycle;Max_cycle;Signal;HPM_P1;HPM_P2
2021/12/11 00:00:39;;;;;;;55.53;32.23;;;;;;;;;;5157465;27;20055;-71
2021/12/11 00:03:18;;;;;;;61.83;35.70;;;;;;;;;;5157677;27;20055;-71
2021/12/11 00:05:46;;;;;;;56.70;33.23;;;;;;;;;;5139578;27;20054;-71
2021/12/11 00:08:15;;;;;;;54.90;32.87;;;;;;;;;;5157476;27;20043;-71
2021/12/11 00:10:44;;;;;;;55.47;32.63;;;;;;;;;;5139587;27;20053;-71
2021/12/11 00:13:16;;;;;;;58.30;34.17;;;;;;;;;;5157586;27;20509;-71
2021/12/11 00:15:44;;;;;;;57.93;33.63;;;;;;;;;;5158071;27;20122;-71
2021/12/11 00:18:20;;;;;;;56.73;33.20;;;;;;;;;;5158050;27;20042;-72
2021/12/11 00:21:06;;;;;;;52.90;31.60;;;;;;;;;;5156962;27;20098;-71
2021/12/11 00:23:37;;;;;;;55.47;32.87;;;;;;;;;;5157330;27;20046;-71
2021/12/11 00:26:04;;;;;;;56.17;32.60;;;;;;;;;;5156976;27;20130;-71
2021/12/11 00:28:30;;;;;;;54.90;32.60;;;;;;;;;;5157494;27;20047;-71
2021/12/11 00:30:57;;;;;;;52.38;31.73;;;;;;;;;;5157052;27;20051;-71
2021/12/11 00:33:25;;;;;;;65.43;36.73;;;;;;;;;;5156884;27;20538;-69
2021/12/11 00:35:56;;;;;;;59.40;34.00;;;;;;;;;;5157501;27;20121;-71
2021/12/11 00:38:34;;;;;;;60.50;34.77;;;;;;;;;;5156967;27;20053;-68
2021/12/11 00:41:05;;;;;;;56.00;34.27;;;;;;;;;;5157032;27;20093;-72
2021/12/11 00:43:35;;;;;;;56.10;33.67;;;;;;;;;;5156654;27;20142;-71
2021/12/11 00:46:01;;;;;;;59.07;34.73;;;;;;;;;;5156627;27;20046;-71
2021/12/11 00:48:27;;;;;;;;;;;;;;;;;;5156983;27;20045;-71
2021/12/11 00:50:59;;;;;;;58.47;34.67;;;;;;;;;;5156537;27;19965;-71
2021/12/11 00:53:30;;;;;;;58.77;34.50;;;;;;;;;;5156440;27;20103;-69
2021/12/11 00:55:57;;;;;;;66.53;38.20;;;;;;;;;;5156497;27;20054;-72
2021/12/11 00:58:23;;;;;;;70.57;38.03;;;;;;;;;;5138431;27;20039;-72
2021/12/11 01:01:01;;;;;;;59.50;34.97;;;;;;;;;;5137782;27;20074;-72
2021/12/11 01:03:37;;;;;;;57.27;35.97;;;;;;;;;;5156395;27;20046;-69
2021/12/11 01:06:29;;;;;;;63.43;34.90;;;;;;;;;;5156627;27;20042;-72
2021/12/11 01:08:59;;;;;;;50.93;31.27;;;;;;;;;;5151645;27;20054;-72
2021/12/11 01:11:32;;;;;;;55.13;32.60;;;;;;;;;;5155943;27;20587;-70
2021/12/11 01:14:11;;;;;;;62.87;34.50;;;;;;;;;;5156046;27;20053;-72
2021/12/11 01:16:38;;;;;;;56.57;32.43;;;;;;;;;;5156529;27;20043;-71
2021/12/11 01:19:05;;;;;;;55.57;31.37;;;;;;;;;;5155754;27;20478;-72
2021/12/11 01:26:32;;;;;;;53.40;30.60;;;;;;;;;;5156671;27;20047;-71
2021/12/11 01:28:58;;;;;;;56.27;31.17;;;;;;;;;;5156434;27;20042;-72
2021/12/11 01:31:24;;;;;;;;;;;;;;;;;;5156260;27;20148;-73
2021/12/11 01:33:52;;;;;;;55.40;31.97;;;;;;;;;;5138270;27;19958;-72
2021/12/11 01:36:18;;;;;;;51.67;29.63;;;;;;;;;;5155741;27;20047;-73
2021/12/11 01:38:44;;;;;;;48.00;29.27;;;;;;;;;;5155955;27;20372;-72
2021/12/11 01:41:13;;;;;;;50.95;29.30;;;;;;;;;;5137302;27;20035;-71
2021/12/11 01:43:40;;;;;;;51.83;28.50;;;;;;;;;;5155514;27;20049;-71
2021/12/11 01:46:06;;;;;;;52.33;29.10;;;;;;;;;;5155624;27;20050;-72
2021/12/11 01:48:34;;;;;;;45.33;28.80;;;;;;;;;;5155525;27;20395;-69
2021/12/11 01:51:12;;;;;;;54.20;29.97;;;;;;;;;;5155473;27;20089;-71
2021/12/11 01:53:40;;;;;;;47.47;27.90;;;;;;;;;;5156036;27;20046;-72
2021/12/11 01:56:09;;;;;;;45.43;27.20;;;;;;;;;;5155472;27;20047;-72
2021/12/11 01:58:37;;;;;;;44.90;26.67;;;;;;;;;;5155330;27;20053;-72
2021/12/11 02:01:26;;;;;;;48.23;28.47;;;;;;;;;;5155129;27;20043;-72
2021/12/11 02:03:53;;;;;;;46.53;27.03;;;;;;;;;;5141809;27;20442;-72
2021/12/11 02:06:20;;;;;;;47.30;26.50;;;;;;;;;;5156085;27;20152;-72
2021/12/11 02:08:46;;;;;;;;;;;;;;;;;;5137391;27;20047;-72
2021/12/11 02:11:15;;;;;;;47.23;27.10;;;;;;;;;;5155306;27;19978;-72
2021/12/11 02:13:47;;;;;;;47.33;27.57;;;;;;;;;;5155121;27;20054;-72
2021/12/11 02:16:25;;;;;;;48.07;27.23;;;;;;;;;;5155816;27;20046;-73
2021/12/11 02:18:53;;;;;;;48.37;28.13;;;;;;;;;;5155098;27;20046;-72
2021/12/11 02:21:28;;;;;;;44.67;26.47;;;;;;;;;;5155081;27;20043;-73
2021/12/11 02:23:58;;;;;;;45.23;26.73;;;;;;;;;;5154996;27;20100;-72
2021/12/11 02:26:26;;;;;;;43.87;26.40;;;;;;;;;;5155739;27;20129;-72
2021/12/11 02:28:57;;;;;;;48.00;26.93;;;;;;;;;;5155283;27;20051;-72
2021/12/11 02:31:26;;;;;;;45.87;27.47;;;;;;;;;;5136903;27;20375;-72
2021/12/11 02:34:09;;;;;;;42.17;25.83;;;;;;;;;;5154947;27;20057;-72
2021/12/11 02:36:42;;;;;;;45.73;26.63;;;;;;;;;;5155070;27;20581;-72
2021/12/11 02:39:27;;;;;;;47.83;26.60;;;;;;;;;;5155788;27;20046;-72
2021/12/11 02:41:53;;;;;;;46.30;26.17;;;;;;;;;;5154637;27;20474;-72
2021/12/11 02:44:26;;;;;;;43.58;25.95;;;;;;;;;;5155543;27;20046;-72
2021/12/11 02:47:07;;;;;;;50.50;28.07;;;;;;;;;;5154860;27;20094;-72
2021/12/11 02:49:49;;;;;;;49.57;29.47;;;;;;;;;;5154615;27;20406;-72
2021/12/11 02:52:34;;;;;;;53.70;30.10;;;;;;;;;;5154422;27;20421;-72
2021/12/11 02:55:05;;;;;;;56.73;31.77;;;;;;;;;;5155198;27;20085;-73
2021/12/11 02:57:34;;;;;;;52.93;31.10;;;;;;;;;;5137466;27;20112;-72
2021/12/11 03:00:12;;;;;;;52.90;29.20;;;;;;;;;;5155658;27;20042;-72
2021/12/11 03:02:44;;;;;;;53.67;31.23;;;;;;;;;;5158093;27;20141;-72
2021/12/11 03:05:13;;;;;;;58.13;33.00;;;;;;;;;;5159132;27;20471;-72
2021/12/11 03:07:44;;;;;;;62.03;33.20;;;;;;;;;;5159177;27;20531;-72
2021/12/11 03:10:12;;;;;;;59.63;32.77;;;;;;;;;;5140156;27;20134;-72
2021/12/11 03:12:39;;;;;;;60.63;31.80;;;;;;;;;;5158696;27;20435;-72
2021/12/11 03:15:06;;;;;;;55.47;31.67;;;;;;;;;;5158278;27;20047;-72
2021/12/11 03:17:32;;;;;;;56.37;33.83;;;;;;;;;;5158341;27;20046;-72
2021/12/11 03:19:58;;;;;;;55.70;34.22;;;;;;;;;;5140270;27;20051;-72
2021/12/11 03:22:29;;;;;;;56.40;32.70;;;;;;;;;;5158781;27;20366;-72
2021/12/11 03:24:56;;;;;;;52.87;30.50;;;;;;;;;;5158253;27;20086;-72
2021/12/11 03:27:22;;;;;;;52.90;31.37;;;;;;;;;;5158239;27;20042;-72
2021/12/11 03:29:48;;;;;;;59.60;32.17;;;;;;;;;;5158009;27;20581;-71
2021/12/11 03:32:14;;;;;;;54.22;30.98;;;;;;;;;;5139657;27;20045;-72
2021/12/11 03:34:41;;;;;;;58.35;31.75;;;;;;;;;;5158077;27;20529;-72
2021/12/11 03:37:09;;;;;;;54.73;31.03;;;;;;;;;;5158155;27;20375;-72
2021/12/11 03:39:37;;;;;;;56.03;32.90;;;;;;;;;;5157908;27;20089;-72
2021/12/11 03:42:07;;;;;;;56.00;32.97;;;;;;;;;;5157801;27;20085;-72
2021/12/11 03:44:33;;;;;;;63.93;35.93;;;;;;;;;;5157899;27;20046;-73
2021/12/11 03:47:03;;;;;;;59.43;32.97;;;;;;;;;;5158239;27;20088;-72
2021/12/11 03:49:29;;;;;;;64.77;35.63;;;;;;;;;;5158205;27;20043;-72
2021/12/11 03:51:56;;;;;;;61.92;34.90;;;;;;;;;;5157663;27;20045;-73
2021/12/11 03:54:24;;;;;;;56.95;33.58;;;;;;;;;;5157934;27;20050;-72
2021/12/11 03:56:50;;;;;;;61.23;34.10;;;;;;;;;;5158033;27;20042;-72
2021/12/11 03:59:17;;;;;;;59.13;32.20;;;;;;;;;;5157674;27;20042;-72
2021/12/11 04:01:45;;;;;;;59.13;34.10;;;;;;;;;;5157495;27;20122;-72
2021/12/11 04:04:20;;;;;;;58.03;33.43;;;;;;;;;;5157230;27;20054;-72
2021/12/11 04:06:46;;;;;;;60.87;34.23;;;;;;;;;;5157532;27;20050;-72
2021/12/11 04:09:13;;;;;;;61.47;34.30;;;;;;;;;;5157388;27;20043;-73
2021/12/11 04:11:40;;;;;;;60.20;35.13;;;;;;;;;;5156918;27;20120;-73
2021/12/11 04:14:06;;;;;;;;;;;;;;;;;;5157601;27;20494;-72
2021/12/11 04:16:32;;;;;;;55.50;33.37;;;;;;;;;;5157244;27;19919;-72
2021/12/11 04:18:59;;;;;;;53.05;33.25;;;;;;;;;;5157916;27;20049;-72
2021/12/11 04:21:25;;;;;;;63.50;35.17;;;;;;;;;;5157034;27;20039;-72
2021/12/11 04:23:51;;;;;;;;;;;;;;;;;;5157543;27;20051;-69
2021/12/11 04:26:18;;;;;;;59.17;35.43;;;;;;;;;;5156711;27;19978;-72
2021/12/11 04:28:46;;;;;;;63.17;35.97;;;;;;;;;;5157347;27;20134;-72
2021/12/11 04:31:18;;;;;;;59.13;34.93;;;;;;;;;;5156728;27;20056;-72
2021/12/11 04:33:46;;;;;;;60.63;35.10;;;;;;;;;;5156691;27;20042;-73
2021/12/11 04:36:16;;;;;;;59.83;35.47;;;;;;;;;;5156572;27;20042;-72
2021/12/11 04:38:43;;;;;;;57.37;33.80;;;;;;;;;;5156715;27;20045;-72
2021/12/11 04:41:14;;;;;;;60.77;35.13;;;;;;;;;;5157124;27;20050;-72
2021/12/11 04:43:41;;;;;;;60.87;36.23;;;;;;;;;;5156518;27;20538;-72
2021/12/11 04:46:09;;;;;;;67.17;38.07;;;;;;;;;;5156366;27;20130;-72
2021/12/11 04:48:54;;;;;;;58.47;35.57;;;;;;;;;;5156379;27;20498;-72
2021/12/11 04:51:27;;;;;;;59.70;34.30;;;;;;;;;;5156600;27;20039;-72
2021/12/11 04:57:05;;;;;;;61.37;34.33;;;;;;;;;;5156757;27;20078;-72
2021/12/11 05:02:15;;;;;;;61.27;34.17;;;;;;;;;;5155794;27;20086;-71
2021/12/11 05:09:53;;;;;;;65.10;38.13;;;;;;;;;;5155927;27;19919;-73
2021/12/11 05:14:51;;;;;;;59.13;36.17;;;;;;;;;;5155953;27;20051;-72
2021/12/11 05:17:18;;;;;;;61.40;36.60;;;;;;;;;;5155818;27;20081;-72
2021/12/11 05:19:44;;;;;;;66.50;40.58;;;;;;;;;;5155828;27;20110;-72
2021/12/11 05:22:10;;;;;;;;;;;;;;;;;;5155829;27;20100;-72
2021/12/11 05:24:38;;;;;;;65.63;38.70;;;;;;;;;;5155513;27;19923;-72
2021/12/11 05:27:04;;;;;;;60.70;36.70;;;;;;;;;;5156072;27;20390;-71
2021/12/11 05:29:30;;;;;;;62.95;37.58;;;;;;;;;;5155881;27;20049;-72
2021/12/11 05:31:57;;;;;;;65.00;38.35;;;;;;;;;;5155527;27;20039;-72
2021/12/11 05:34:23;;;;;;;;;;;;;;;;;;5155878;27;20082;-72
2021/12/11 05:36:49;;;;;;;74.47;41.03;;;;;;;;;;5155516;27;19918;-72
2021/12/11 05:39:16;;;;;;;64.60;36.85;;;;;;;;;;5155374;27;20455;-72
2021/12/11 05:41:42;;;;;;;61.23;35.57;;;;;;;;;;5155361;27;20364;-72
2021/12/11 05:44:09;;;;;;;61.53;37.30;;;;;;;;;;5155848;27;20087;-72
2021/12/11 05:46:35;;;;;;;65.03;37.27;;;;;;;;;;5155468;27;20047;-72
2021/12/11 05:49:02;;;;;;;65.50;37.85;;;;;;;;;;5155463;27;20125;-68
2021/12/11 05:51:30;;;;;;;61.90;35.90;;;;;;;;;;5155359;27;20091;-72
2021/12/11 05:53:59;;;;;;;62.33;37.10;;;;;;;;;;5155891;27;20091;-72
2021/12/11 05:56:25;;;;;;;65.03;38.33;;;;;;;;;;5156069;27;20053;-72
2021/12/11 06:01:23;;;;;;;64.55;37.63;;;;;;;;;;5155088;27;20042;-72
2021/12/11 06:03:49;;;;;;;67.27;38.60;;;;;;;;;;5155563;27;20062;-73
2021/12/11 06:06:15;;;;;;;64.17;38.90;;;;;;;;;;5155134;27;20059;-72
2021/12/11 06:08:42;;;;;;;65.75;37.22;;;;;;;;;;5155961;27;20118;-72
2021/12/11 06:11:12;;;;;;;66.07;37.10;;;;;;;;;;5155035;27;20042;-72
2021/12/11 06:13:38;;;;;;;64.93;38.20;;;;;;;;;;5156026;27;20050;-72
2021/12/11 06:16:04;;;;;;;60.63;35.90;;;;;;;;;;5155155;27;20046;-68
2021/12/11 06:18:31;;;;;;;73.25;39.83;;;;;;;;;;5155176;27;20151;-72
2021/12/11 06:20:57;;;;;;;64.93;36.57;;;;;;;;;;5155108;27;20095;-73
2021/12/11 06:23:24;;;;;;;68.53;37.78;;;;;;;;;;5155596;27;20092;-73
2021/12/11 06:25:51;;;;;;;72.87;37.83;;;;;;;;;;5155391;27;20050;-72
2021/12/11 06:28:17;;;;;;;71.20;38.03;;;;;;;;;;5154709;27;20043;-71
2021/12/11 06:30:44;;;;;;;64.43;37.97;;;;;;;;;;5155014;27;20115;-70
2021/12/11 06:33:12;;;;;;;65.47;36.55;;;;;;;;;;5154835;27;20039;-71
2021/12/11 06:35:44;;;;;;;70.03;38.17;;;;;;;;;;5159170;27;20379;-72
2021/12/11 06:38:12;;;;;;;72.97;38.67;;;;;;;;;;5159271;27;20398;-71
2021/12/11 06:40:38;;;;;;;67.20;37.43;;;;;;;;;;5158987;27;20038;-71
2021/12/11 06:43:05;;;;;;;67.80;38.67;;;;;;;;;;5159484;27;20370;-71
2021/12/11 06:45:31;;;;;;;70.72;38.25;;;;;;;;;;5159259;27;20049;-70
2021/12/11 06:47:57;;;;;;;65.50;37.60;;;;;;;;;;5158997;27;20175;-72
2021/12/11 06:50:24;;;;;;;68.53;39.30;;;;;;;;;;5159355;27;20047;-71
2021/12/11 06:52:51;;;;;;;65.97;37.70;;;;;;;;;;5158773;27;20049;-71
2021/12/11 06:55:18;;;;;;;67.47;37.33;;;;;;;;;;5158687;27;20043;-72
2021/12/11 06:57:44;;;;;;;68.87;39.23;;;;;;;;;;5158899;27;20431;-71
2021/12/11 07:00:11;;;;;;;66.57;39.65;;;;;;;;;;5140156;27;20043;-70
2021/12/11 07:02:37;;;;;;;70.00;40.60;;;;;;;;;;5158322;27;20055;-70
2021/12/11 07:05:04;;;;;;;79.80;42.08;;;;;;;;;;5159488;27;20047;-69
2021/12/11 07:07:34;;;;;;;64.10;38.90;;;;;;;;;;5159335;27;20043;-71
2021/12/11 07:10:00;;;;;;;60.63;37.60;;;;;;;;;;5158489;27;20042;-70
2021/12/11 07:12:26;;;;;;;79.47;42.75;;;;;;;;;;5158373;27;20050;-70
2021/12/11 07:14:52;;;;;;;70.65;37.75;;;;;;;;;;5159012;27;20050;-70
2021/12/11 07:17:20;;;;;;;67.68;38.45;;;;;;;;;;5159170;27;20053;-71
2021/12/11 07:19:46;;;;;;;72.03;40.47;;;;;;;;;;5159064;27;20077;-70
2021/12/11 07:22:12;;;;;;;;;;;;;;;;;;5158351;27;20125;-67
2021/12/11 07:24:44;;;;;;;68.13;40.23;;;;;;;;;;5158257;27;20337;-69
2021/12/11 07:27:11;;;;;;;73.83;42.53;;;;;;;;;;5157919;27;20042;-69
2021/12/11 07:29:37;;;;;;;72.93;41.47;;;;;;;;;;5157892;27;20047;-68
2021/12/11 07:32:05;;;;;;;69.97;40.67;;;;;;;;;;5157672;27;20042;-68
2021/12/11 07:34:31;;;;;;;69.80;40.60;;;;;;;;;;5157298;27;20163;-68
2021/12/11 07:36:57;;;;;;;74.65;39.90;;;;;;;;;;5156994;27;20039;-69
2021/12/11 07:39:24;;;;;;;69.57;41.30;;;;;;;;;;5156800;27;20050;-68
2021/12/11 07:41:52;;;;;;;73.07;41.60;;;;;;;;;;5156403;27;20129;-69
2021/12/11 07:44:18;;;;;;;74.93;42.17;;;;;;;;;;5155969;27;20386;-68
2021/12/11 07:46:44;;;;;;;69.57;39.45;;;;;;;;;;5154727;27;20129;-68
2021/12/11 07:49:11;;;;;;;69.32;42.05;;;;;;;;;;5156238;27;20164;-68
2021/12/11 07:51:38;;;;;;;71.72;39.40;;;;;;;;;;5155324;27;20039;-68
2021/12/11 07:54:04;;;;;;;70.57;40.43;;;;;;;;;;5155699;27;20047;-69
2021/12/11 07:56:31;;;;;;;72.20;40.97;;;;;;;;;;5136627;27;20177;-69
2021/12/11 07:58:59;;;;;;;81.95;43.60;;;;;;;;;;5136932;27;20136;-69
2021/12/11 08:01:25;;;;;;;76.47;41.13;;;;;;;;;;5155870;27;20390;-69
2021/12/11 08:03:51;;;;;;;75.70;41.97;;;;;;;;;;5155331;27;20054;-69
2021/12/11 08:06:17;;;;;;;75.90;41.65;;;;;;;;;;5154882;27;20446;-67
2021/12/11 08:08:45;;;;;;;83.13;44.85;;;;;;;;;;5155061;27;20192;-69
2021/12/11 08:11:17;;;;;;;73.80;40.17;;;;;;;;;;5154914;27;20091;-69
2021/12/11 08:13:44;;;;;;;73.57;43.10;;;;;;;;;;5137160;27;20386;-69
2021/12/11 08:16:11;;;;;;;74.80;43.70;;;;;;;;;;5155173;27;20044;-69
2021/12/11 08:18:37;;;;;;;70.90;42.60;;;;;;;;;;5154670;27;20049;-68
2021/12/11 08:21:03;;;;;;;;;;;;;;;;;;5155086;27;20506;-69
2021/12/11 08:23:29;;;;;;;77.43;42.00;;;;;;;;;;5154617;27;19962;-69
2021/12/11 08:25:57;;;;;;;73.88;41.38;;;;;;;;;;5154703;27;20050;-69
2021/12/11 08:28:31;;;;;;;78.33;45.47;;;;;;;;;;5154856;27;20107;-69
2021/12/11 08:30:59;;;;;;;75.40;42.80;;;;;;;;;;5154520;27;20470;-69
2021/12/11 08:33:25;;;;;;;77.67;44.43;;;;;;;;;;5154528;27;20038;-69
2021/12/11 08:35:52;;;;;;;74.88;42.95;;;;;;;;;;5154366;27;20039;-68
2021/12/11 08:38:18;;;;;;;74.80;42.27;;;;;;;;;;5154904;27;20042;-69
2021/12/11 08:40:47;;;;;;;74.22;45.60;;;;;;;;;;5154673;27;20050;-69
2021/12/11 08:43:14;;;;;;;79.40;44.73;;;;;;;;;;5153957;27;20043;-68
2021/12/11 08:45:50;;;;;;;71.13;43.50;;;;;;;;;;5154655;27;20064;-69
2021/12/11 08:48:17;;;;;;;73.43;43.10;;;;;;;;;;5153869;27;20564;-69
2021/12/11 08:50:54;;;;;;;74.40;42.97;;;;;;;;;;5154426;27;20042;-69
2021/12/11 08:53:20;;;;;;;75.97;43.87;;;;;;;;;;5154020;27;20078;-68
2021/12/11 08:55:48;;;;;;;73.20;43.80;;;;;;;;;;5154521;27;20051;-69
2021/12/11 08:58:15;;;;;;;73.83;44.43;;;;;;;;;;5153972;27;20084;-69
2021/12/11 09:00:52;;;;;;;74.53;43.20;;;;;;;;;;5154166;27;20131;-69
2021/12/11 09:03:41;;;;;;;74.68;43.15;;;;;;;;;;5154120;27;20419;-69
2021/12/11 09:06:10;;;;;;;75.70;45.33;;;;;;;;;;5141423;27;20057;-69
2021/12/11 09:08:39;;;;;;;80.50;43.63;;;;;;;;;;5153915;27;20046;-69
2021/12/11 09:11:09;;;;;;;78.50;44.67;;;;;;;;;;5153844;27;20129;-69
2021/12/11 09:13:38;;;;;;;80.40;48.60;;;;;;;;;;5153676;27;20077;-69
2021/12/11 09:16:12;;;;;;;81.60;45.57;;;;;;;;;;5153368;27;20502;-69
2021/12/11 09:18:43;;;;;;;83.30;47.33;;;;;;;;;;5154053;27;20043;-69
2021/12/11 09:21:11;;;;;;;85.57;49.80;;;;;;;;;;5154025;27;20042;-72
2021/12/11 09:23:42;;;;;;;80.23;48.17;;;;;;;;;;5153328;27;20079;-72
2021/12/11 09:26:09;;;;;;;84.53;48.20;;;;;;;;;;5136018;27;20114;-73
2021/12/11 09:28:35;;;;;;;;;;;;;;;;;;5153782;27;20046;-74
2021/12/11 09:31:08;;;;;;;92.43;49.60;;;;;;;;;;5153569;27;20022;-75
2021/12/11 09:33:37;;;;;;;86.50;48.17;;;;;;;;;;5135014;27;20057;-75
2021/12/11 09:36:06;;;;;;;86.77;50.63;;;;;;;;;;5155153;27;20360;-72
2021/12/11 09:38:38;;;;;;;82.73;47.10;;;;;;;;;;5153378;27;20042;-74
2021/12/11 09:41:22;;;;;;;82.33;46.90;;;;;;;;;;5153442;27;20042;-75
2021/12/11 09:43:51;;;;;;;85.33;45.47;;;;;;;;;;5153354;27;20129;-74
2021/12/11 09:46:19;;;;;;;84.60;44.90;;;;;;;;;;5153402;27;20099;-75
2021/12/11 09:48:47;;;;;;;81.63;44.67;;;;;;;;;;5153767;27;20327;-75
2021/12/11 09:51:17;;;;;;;82.53;45.47;;;;;;;;;;5153477;27;20047;-74
2021/12/11 09:53:48;;;;;;;78.60;44.57;;;;;;;;;;5153790;27;20050;-75
2021/12/11 09:56:17;;;;;;;82.13;45.23;;;;;;;;;;5153470;27;20489;-75
2021/12/11 09:58:44;;;;;;;75.87;43.37;;;;;;;;;;5153447;27;20051;-74
2021/12/11 10:01:22;;;;;;;85.70;44.53;;;;;;;;;;5135894;27;20091;-75
2021/12/11 10:03:52;;;;;;;85.47;45.13;;;;;;;;;;5153436;27;20051;-74
2021/12/11 10:09:27;;;;;;;78.10;43.77;;;;;;;;;;5048465;28;20057;-75
2021/12/11 10:11:58;;;;;;;83.93;45.13;;;;;;;;;;5133383;27;20094;-73
2021/12/11 10:14:27;;;;;;;85.67;45.30;;;;;;;;;;5153864;27;20049;-75
2021/12/11 10:16:56;;;;;;;84.13;47.10;;;;;;;;;;5153174;27;20130;-73
2021/12/11 10:19:24;;;;;;;85.43;45.77;;;;;;;;;;5134919;27;20051;-71
2021/12/11 10:21:55;;;;;;;83.90;44.63;;;;;;;;;;5153034;27;20049;-73
2021/12/11 10:24:23;;;;;;;87.37;46.80;;;;;;;;;;5153096;27;20039;-72
2021/12/11 10:26:52;;;;;;;89.83;45.73;;;;;;;;;;5153232;27;20053;-74
2021/12/11 10:29:19;;;;;;;82.20;46.97;;;;;;;;;;5153648;27;20053;-72
2021/12/11 10:31:47;;;;;;;86.33;45.87;;;;;;;;;;5153558;27;20165;-72
2021/12/11 10:34:16;;;;;;;83.87;46.90;;;;;;;;;;5134884;27;20474;-71
2021/12/11 10:36:44;;;;;;;93.10;48.43;;;;;;;;;;5153682;27;20051;-73
2021/12/11 10:39:12;;;;;;;87.70;45.57;;;;;;;;;;5153907;27;20042;-73
2021/12/11 10:41:38;;;;;;;88.93;47.93;;;;;;;;;;5135151;27;20118;-72
2021/12/11 10:44:06;;;;;;;86.73;44.97;;;;;;;;;;5153290;27;20043;-72
2021/12/11 10:46:34;;;;;;;83.40;46.43;;;;;;;;;;5153251;27;20118;-75
2021/12/11 10:49:01;;;;;;;87.40;46.23;;;;;;;;;;5134335;27;20061;-75
2021/12/11 10:51:30;;;;;;;88.93;44.63;;;;;;;;;;5153043;27;20035;-75
2021/12/11 10:53:57;;;;;;;84.80;45.30;;;;;;;;;;5152761;27;20054;-76
2021/12/11 10:56:25;;;;;;;84.87;45.40;;;;;;;;;;5153035;27;20050;-73
2021/12/11 10:58:56;;;;;;;84.63;44.03;;;;;;;;;;5152869;27;20045;-73
2021/12/11 11:01:27;;;;;;;92.90;46.50;;;;;;;;;;5153762;27;20112;-74
2021/12/11 11:03:59;;;;;;;81.57;43.20;;;;;;;;;;5153081;27;20059;-75
2021/12/11 11:06:25;;;;;;;83.70;41.03;;;;;;;;;;5153496;27;20047;-75
2021/12/11 11:08:51;;;;;;;79.47;42.88;;;;;;;;;;5152765;27;20474;-71
2021/12/11 11:11:19;;;;;;;76.78;41.13;;;;;;;;;;5153485;27;20123;-74
2021/12/11 11:13:45;;;;;;;83.03;43.47;;;;;;;;;;5134231;27;20134;-75
2021/12/11 11:16:11;;;;;;;;;;;;;;;;;;5153256;27;20392;-73
2021/12/11 11:18:38;;;;;;;72.30;40.50;;;;;;;;;;5134341;27;19919;-74
2021/12/11 11:21:04;;;;;;;;;;;;;;;;;;5154295;27;20102;-75
2021/12/11 11:23:30;;;;;;;69.50;36.93;;;;;;;;;;5138803;27;19923;-74
2021/12/11 11:25:58;;;;;;;74.20;38.78;;;;;;;;;;5138583;27;20050;-73
2021/12/11 11:28:26;;;;;;;77.13;40.47;;;;;;;;;;5156300;27;20080;-73
2021/12/11 11:30:57;;;;;;;71.57;40.80;;;;;;;;;;5157019;27;20125;-74
2021/12/11 11:33:23;;;;;;;67.67;39.00;;;;;;;;;;5157236;27;20045;-74
2021/12/11 11:35:50;;;;;;;66.55;36.53;;;;;;;;;;5138441;27;20125;-73
2021/12/11 11:38:19;;;;;;;64.70;35.90;;;;;;;;;;5156442;27;20050;-73
2021/12/11 11:40:48;;;;;;;61.80;35.17;;;;;;;;;;5156507;27;20461;-71
2021/12/11 11:43:18;;;;;;;63.57;33.37;;;;;;;;;;5157053;27;20047;-70
2021/12/11 11:45:44;;;;;;;66.53;35.30;;;;;;;;;;5156257;27;20078;-71
2021/12/11 11:48:10;;;;;;;57.58;33.10;;;;;;;;;;5156179;27;20042;-74
2021/12/11 11:50:42;;;;;;;62.40;32.97;;;;;;;;;;5156108;27;20047;-69
2021/12/11 11:53:08;;;;;;;57.63;33.03;;;;;;;;;;5155924;27;20082;-70
2021/12/11 11:55:38;;;;;;;57.28;32.47;;;;;;;;;;5156057;27;20045;-71
2021/12/11 11:58:04;;;;;;;57.20;34.47;;;;;;;;;;5137768;27;20047;-72
2021/12/11 12:00:30;;;;;;;;;;;;;;;;;;5156689;27;20392;-70
2021/12/11 12:02:57;;;;;;;57.63;33.63;;;;;;;;;;5155642;27;19923;-72
2021/12/11 12:05:24;;;;;;;53.30;32.03;;;;;;;;;;5136958;27;20074;-71
2021/12/11 12:07:50;;;;;;;56.47;33.17;;;;;;;;;;5137405;27;20042;-72
2021/12/11 12:10:19;;;;;;;60.35;33.75;;;;;;;;;;5155681;27;20051;-71
2021/12/11 12:12:46;;;;;;;55.80;32.63;;;;;;;;;;5155684;27;20042;-70
2021/12/11 12:15:12;;;;;;;;;;;;;;;;;;5103785;27;20497;-75
2021/12/11 12:17:39;;;;;;;52.67;31.33;;;;;;;;;;5156294;27;19919;-71
2021/12/11 12:20:08;;;;;;;60.30;33.33;;;;;;;;;;5155684;27;20050;-72
2021/12/11 12:22:34;;;;;;;58.30;31.50;;;;;;;;;;5155389;27;20171;-72
2021/12/11 12:25:02;;;;;;;56.22;30.90;;;;;;;;;;5155374;27;20039;-73
2021/12/11 12:27:29;;;;;;;56.87;32.30;;;;;;;;;;5155328;27;20110;-73
2021/12/11 12:29:56;;;;;;;53.60;29.83;;;;;;;;;;5154725;27;20072;-68
2021/12/11 12:32:25;;;;;;;52.63;29.50;;;;;;;;;;5155051;27;20091;-67
2021/12/11 12:34:53;;;;;;;56.57;30.73;;;;;;;;;;5155111;27;20043;-68
2021/12/11 12:37:19;;;;;;;54.03;30.40;;;;;;;;;;5155683;27;20391;-69
2021/12/11 12:39:45;;;;;;;;;;;;;;;;;;5156327;27;20480;-72
2021/12/11 12:42:20;;;;;;;54.17;30.77;;;;;;;;;;5155010;27;19918;-71
2021/12/11 12:44:48;;;;;;;53.63;30.23;;;;;;;;;;5154999;27;20125;-71
2021/12/11 12:47:20;;;;;;;56.17;32.40;;;;;;;;;;5154896;27;20062;-70
2021/12/11 12:49:47;;;;;;;59.63;31.73;;;;;;;;;;5154916;27;20493;-69
2021/12/11 12:52:19;;;;;;;52.77;31.00;;;;;;;;;;5155303;27;20102;-70
2021/12/11 12:54:45;;;;;;;50.83;29.50;;;;;;;;;;5154858;27;20095;-70
2021/12/11 12:57:14;;;;;;;;;;;;;;;;;;5155398;27;20066;-72
2021/12/11 12:59:52;;;;;;;52.93;30.10;;;;;;;;;;5154688;27;20013;-72
2021/12/11 13:02:19;;;;;;;52.07;29.87;;;;;;;;;;5154233;27;20503;-68
2021/12/11 13:04:49;;;;;;;49.00;30.17;;;;;;;;;;5154967;27;20123;-69
2021/12/11 13:07:16;;;;;;;50.17;30.30;;;;;;;;;;5154349;27;20486;-69
2021/12/11 13:09:45;;;;;;;50.17;30.63;;;;;;;;;;5154501;27;20129;-70
2021/12/11 13:12:25;;;;;;;50.87;29.23;;;;;;;;;;5137166;27;20039;-68
2021/12/11 13:14:52;;;;;;;47.30;27.80;;;;;;;;;;5154994;27;20106;-68
2021/12/11 13:17:25;;;;;;;49.03;29.57;;;;;;;;;;5135645;27;20458;-70
2021/12/11 13:19:54;;;;;;;55.80;30.67;;;;;;;;;;5136471;27;20050;-73
2021/12/11 13:22:26;;;;;;;47.97;28.83;;;;;;;;;;5155014;27;20043;-72
2021/12/11 13:24:54;;;;;;;54.70;30.03;;;;;;;;;;5150986;27;20461;-72
2021/12/11 13:27:23;;;;;;;57.63;30.80;;;;;;;;;;5136050;27;20054;-67
2021/12/11 13:29:54;;;;;;;49.63;30.47;;;;;;;;;;5154003;27;20439;-68
2021/12/11 13:32:23;;;;;;;49.37;30.20;;;;;;;;;;5135303;27;20042;-73
2021/12/11 13:34:58;;;;;;;49.70;30.03;;;;;;;;;;5136705;27;20074;-69
2021/12/11 13:37:25;;;;;;;52.87;31.90;;;;;;;;;;5154080;27;20043;-70
2021/12/11 13:39:52;;;;;;;55.13;32.03;;;;;;;;;;5154774;27;20043;-72
2021/12/11 13:42:21;;;;;;;63.00;31.80;;;;;;;;;;5153798;27;20098;-71
2021/12/11 13:44:56;;;;;;;58.27;32.70;;;;;;;;;;5134747;27;20039;-70
2021/12/11 13:47:28;;;;;;;59.60;33.33;;;;;;;;;;5153820;27;20046;-70
2021/12/11 13:49:57;;;;;;;57.20;32.53;;;;;;;;;;5154518;27;20195;-70
2021/12/11 13:52:23;;;;;;;52.23;31.33;;;;;;;;;;5135097;27;20470;-69
2021/12/11 13:54:51;;;;;;;58.13;32.13;;;;;;;;;;5153795;27;20039;-69
2021/12/11 13:57:24;;;;;;;58.43;32.17;;;;;;;;;;5153664;27;20482;-68
2021/12/11 13:59:50;;;;;;;59.90;32.30;;;;;;;;;;5153899;27;20099;-70
2021/12/11 14:02:18;;;;;;;;;;;;;;;;;;5154010;27;20557;-70
2021/12/11 14:04:47;;;;;;;60.27;33.27;;;;;;;;;;5154199;27;19919;-70
2021/12/11 14:07:16;;;;;;;57.13;32.63;;;;;;;;;;5154047;27;20093;-68
2021/12/11 14:09:51;;;;;;;62.83;34.80;;;;;;;;;;5136083;27;20047;-71
2021/12/11 14:12:18;;;;;;;58.53;32.97;;;;;;;;;;5153523;27;20042;-70
2021/12/11 14:14:45;;;;;;;61.17;34.50;;;;;;;;;;5153428;27;20551;-69
2021/12/11 14:17:11;;;;;;;;;;;;;;;;;;5153892;27;20390;-70
2021/12/11 14:19:39;;;;;;;63.67;34.27;;;;;;;;;;5153435;27;20005;-70
2021/12/11 14:22:05;;;;;;;61.27;33.87;;;;;;;;;;5153338;27;20043;-70
2021/12/11 14:24:33;;;;;;;64.00;34.15;;;;;;;;;;5153869;27;20042;-72
2021/12/11 14:27:02;;;;;;;62.23;33.67;;;;;;;;;;5135156;27;20455;-70
2021/12/11 14:29:30;;;;;;;64.37;35.03;;;;;;;;;;5135409;27;20089;-70
2021/12/11 14:31:56;;;;;;;67.80;32.50;;;;;;;;;;5153365;27;20097;-71
2021/12/11 14:34:23;;;;;;;60.53;32.67;;;;;;;;;;5153320;27;20042;-71
2021/12/11 14:36:52;;;;;;;67.23;33.83;;;;;;;;;;5154056;27;20098;-71
2021/12/11 14:39:23;;;;;;;60.97;35.70;;;;;;;;;;5153465;27;20046;-72
2021/12/11 14:41:50;;;;;;;63.80;33.63;;;;;;;;;;5153059;27;20482;-72
2021/12/11 14:44:20;;;;;;;59.83;32.73;;;;;;;;;;5153282;27;20042;-71
2021/12/11 14:46:47;;;;;;;61.40;32.50;;;;;;;;;;5134651;27;20057;-70
2021/12/11 14:49:13;;;;;;;63.60;32.77;;;;;;;;;;5153063;27;20644;-70
2021/12/11 14:51:39;;;;;;;62.67;33.42;;;;;;;;;;5153398;27;20078;-72
2021/12/11 14:54:09;;;;;;;62.65;34.50;;;;;;;;;;5153446;27;20054;-69
2021/12/11 14:56:37;;;;;;;61.60;34.10;;;;;;;;;;5156974;27;20103;-71